sensor_id;sensor_type;location;lat;lon;timestamp;P1;durP1;ratioP1;P2;durP2;ratioP2
18776;SDS011;9517;51.174;4.160;2023-07-22T00:02:25;22.63;;;11.03;;
18776;SDS011;9517;51.174;4.160;2023-07-22T00:04:52;21.83;;;11.90;;
18776;SDS011;9517;51.174;4.160;2023-07-22T00:07:20;23.40;;;12.43;;
18776;SDS011;9517;51.174;4.160;2023-07-22T00:09:48;23.87;;;11.50;;
18776;SDS011;9517;51.174;4.160;2023-07-22T00:12:16;24.87;;;11.93;;
18776;SDS011;9517;51.174;4.160;2023-07-22T00:14:43;25.00;;;12.20;;
18776;SDS011;9517;51.174;4.160;2023-07-22T00:17:10;21.27;;;11.13;;
18776;SDS011;9517;51.174;4.160;2023-07-22T00:19:37;21.37;;;10.90;;
18776;SDS011;9517;51.174;4.160;2023-07-22T00:22:05;24.50;;;11.67;;
18776;SDS011;9517;51.174;4.160;2023-07-22T00:24:32;21.07;;;11.67;;
18776;SDS011;9517;51.174;4.160;2023-07-22T00:27:01;23.43;;;11.23;;
18776;SDS011;9517;51.174;4.160;2023-07-22T00:29:28;23.83;;;12.27;;
18776;SDS011;9517;51.174;4.160;2023-07-22T00:31:55;23.30;;;12.00;;
18776;SDS011;9517;51.174;4.160;2023-07-22T00:34:22;24.77;;;12.03;;
18776;SDS011;9517;51.174;4.160;2023-07-22T00:36:49;24.93;;;11.60;;
18776;SDS011;9517;51.174;4.160;2023-07-22T00:39:17;22.90;;;12.13;;
18776;SDS011;9517;51.174;4.160;2023-07-22T00:41:45;23.47;;;11.57;;
18776;SDS011;9517;51.174;4.160;2023-07-22T00:44:14;20.87;;;11.87;;
18776;SDS011;9517;51.174;4.160;2023-07-22T00:46:41;24.20;;;12.17;;
18776;SDS011;9517;51.174;4.160;2023-07-22T00:49:08;24.63;;;11.83;;
18776;SDS011;9517;51.174;4.160;2023-07-22T00:51:36;22.03;;;11.43;;
18776;SDS011;9517;51.174;4.160;2023-07-22T00:54:03;25.40;;;12.83;;
18776;SDS011;9517;51.174;4.160;2023-07-22T00:56:30;24.70;;;12.07;;
18776;SDS011;9517;51.174;4.160;2023-07-22T00:59:02;22.60;;;11.23;;
18776;SDS011;9517;51.174;4.160;2023-07-22T01:01:30;20.73;;;10.77;;
18776;SDS011;9517;51.174;4.160;2023-07-22T01:03:57;23.97;;;12.73;;
18776;SDS011;9517;51.174;4.160;2023-07-22T01:06:25;26.07;;;12.17;;
18776;SDS011;9517;51.174;4.160;2023-07-22T01:08:56;22.73;;;11.57;;
18776;SDS011;9517;51.174;4.160;2023-07-22T01:11:24;29.53;;;12.60;;
18776;SDS011;9517;51.174;4.160;2023-07-22T01:13:51;26.30;;;11.43;;
18776;SDS011;9517;51.174;4.160;2023-07-22T01:16:23;22.07;;;12.47;;
18776;SDS011;9517;51.174;4.160;2023-07-22T01:18:53;27.20;;;12.10;;
18776;SDS011;9517;51.174;4.160;2023-07-22T01:21:21;27.67;;;11.80;;
18776;SDS011;9517;51.174;4.160;2023-07-22T01:23:51;24.20;;;13.00;;
18776;SDS011;9517;51.174;4.160;2023-07-22T01:26:18;25.57;;;12.13;;
18776;SDS011;9517;51.174;4.160;2023-07-22T01:28:46;26.40;;;12.50;;
18776;SDS011;9517;51.174;4.160;2023-07-22T01:31:13;24.80;;;12.37;;
18776;SDS011;9517;51.174;4.160;2023-07-22T01:33:40;26.23;;;12.97;;
18776;SDS011;9517;51.174;4.160;2023-07-22T01:36:07;26.10;;;11.90;;
18776;SDS011;9517;51.174;4.160;2023-07-22T01:38:34;25.20;;;12.73;;
18776;SDS011;9517;51.174;4.160;2023-07-22T01:41:03;32.10;;;13.40;;
18776;SDS011;9517;51.174;4.160;2023-07-22T01:43:30;24.17;;;12.50;;
18776;SDS011;9517;51.174;4.160;2023-07-22T01:45:57;27.33;;;13.70;;
18776;SDS011;9517;51.174;4.160;2023-07-22T01:48:24;23.67;;;12.07;;
18776;SDS011;9517;51.174;4.160;2023-07-22T01:50:51;28.40;;;12.10;;
18776;SDS011;9517;51.174;4.160;2023-07-22T01:53:19;25.87;;;12.20;;
18776;SDS011;9517;51.174;4.160;2023-07-22T01:55:46;25.07;;;12.70;;
18776;SDS011;9517;51.174;4.160;2023-07-22T01:58:15;25.30;;;12.30;;
18776;SDS011;9517;51.174;4.160;2023-07-22T02:00:42;28.33;;;13.27;;
18776;SDS011;9517;51.174;4.160;2023-07-22T02:03:09;27.47;;;12.60;;
18776;SDS011;9517;51.174;4.160;2023-07-22T02:05:36;29.00;;;12.93;;
18776;SDS011;9517;51.174;4.160;2023-07-22T02:08:03;25.93;;;12.47;;
18776;SDS011;9517;51.174;4.160;2023-07-22T02:10:30;23.93;;;11.73;;
18776;SDS011;9517;51.174;4.160;2023-07-22T02:12:57;27.03;;;12.87;;
18776;SDS011;9517;51.174;4.160;2023-07-22T02:15:26;29.60;;;12.93;;
18776;SDS011;9517;51.174;4.160;2023-07-22T02:17:53;26.93;;;13.30;;
18776;SDS011;9517;51.174;4.160;2023-07-22T02:20:21;24.93;;;13.10;;
18776;SDS011;9517;51.174;4.160;2023-07-22T02:22:49;26.17;;;12.97;;
18776;SDS011;9517;51.174;4.160;2023-07-22T02:25:30;26.70;;;13.67;;
18776;SDS011;9517;51.174;4.160;2023-07-22T02:27:57;29.13;;;13.47;;
18776;SDS011;9517;51.174;4.160;2023-07-22T02:30:28;29.37;;;12.13;;
18776;SDS011;9517;51.174;4.160;2023-07-22T02:33:00;25.57;;;11.83;;
18776;SDS011;9517;51.174;4.160;2023-07-22T02:35:28;26.13;;;13.53;;
18776;SDS011;9517;51.174;4.160;2023-07-22T02:37:55;28.60;;;13.77;;
18776;SDS011;9517;51.174;4.160;2023-07-22T02:40:22;31.30;;;13.83;;
18776;SDS011;9517;51.174;4.160;2023-07-22T02:42:50;26.70;;;13.57;;
18776;SDS011;9517;51.174;4.160;2023-07-22T02:45:17;24.80;;;12.60;;
18776;SDS011;9517;51.174;4.160;2023-07-22T02:47:45;27.03;;;12.33;;
18776;SDS011;9517;51.174;4.160;2023-07-22T02:50:13;30.93;;;13.00;;
18776;SDS011;9517;51.174;4.160;2023-07-22T02:52:40;29.27;;;14.23;;
18776;SDS011;9517;51.174;4.160;2023-07-22T02:55:08;27.27;;;13.97;;
18776;SDS011;9517;51.174;4.160;2023-07-22T02:57:36;27.97;;;14.00;;
18776;SDS011;9517;51.174;4.160;2023-07-22T03:00:12;29.40;;;13.50;;
18776;SDS011;9517;51.174;4.160;2023-07-22T03:02:47;27.27;;;12.53;;
18776;SDS011;9517;51.174;4.160;2023-07-22T03:05:14;32.33;;;14.17;;
18776;SDS011;9517;51.174;4.160;2023-07-22T03:07:41;34.10;;;14.23;;
18776;SDS011;9517;51.174;4.160;2023-07-22T03:10:08;29.07;;;13.70;;
18776;SDS011;9517;51.174;4.160;2023-07-22T03:12:36;29.27;;;13.47;;
18776;SDS011;9517;51.174;4.160;2023-07-22T03:15:07;31.00;;;14.53;;
18776;SDS011;9517;51.174;4.160;2023-07-22T03:17:34;26.97;;;13.57;;
18776;SDS011;9517;51.174;4.160;2023-07-22T03:20:03;33.50;;;14.37;;
18776;SDS011;9517;51.174;4.160;2023-07-22T03:22:36;29.57;;;14.10;;
18776;SDS011;9517;51.174;4.160;2023-07-22T03:25:03;33.47;;;14.63;;
18776;SDS011;9517;51.174;4.160;2023-07-22T03:27:34;39.13;;;15.23;;
18776;SDS011;9517;51.174;4.160;2023-07-22T03:30:02;34.30;;;15.27;;
18776;SDS011;9517;51.174;4.160;2023-07-22T03:32:29;29.97;;;15.13;;
18776;SDS011;9517;51.174;4.160;2023-07-22T03:34:56;31.87;;;14.37;;
18776;SDS011;9517;51.174;4.160;2023-07-22T03:37:25;31.87;;;14.87;;
18776;SDS011;9517;51.174;4.160;2023-07-22T03:39:52;30.80;;;14.50;;
18776;SDS011;9517;51.174;4.160;2023-07-22T03:42:19;32.07;;;15.83;;
18776;SDS011;9517;51.174;4.160;2023-07-22T03:44:47;32.80;;;15.17;;
18776;SDS011;9517;51.174;4.160;2023-07-22T03:47:14;31.67;;;15.37;;
18776;SDS011;9517;51.174;4.160;2023-07-22T03:49:41;30.60;;;14.30;;
18776;SDS011;9517;51.174;4.160;2023-07-22T03:52:08;32.40;;;14.83;;
18776;SDS011;9517;51.174;4.160;2023-07-22T03:54:40;32.23;;;15.20;;
18776;SDS011;9517;51.174;4.160;2023-07-22T03:57:06;34.17;;;15.63;;
18776;SDS011;9517;51.174;4.160;2023-07-22T03:59:33;32.20;;;14.77;;
18776;SDS011;9517;51.174;4.160;2023-07-22T04:02:01;33.23;;;15.70;;
18776;SDS011;9517;51.174;4.160;2023-07-22T04:04:28;33.70;;;16.47;;
18776;SDS011;9517;51.174;4.160;2023-07-22T04:06:55;32.10;;;14.93;;
18776;SDS011;9517;51.174;4.160;2023-07-22T04:09:22;30.33;;;14.97;;
18776;SDS011;9517;51.174;4.160;2023-07-22T04:11:51;32.43;;;14.50;;
18776;SDS011;9517;51.174;4.160;2023-07-22T04:14:19;28.77;;;14.70;;
18776;SDS011;9517;51.174;4.160;2023-07-22T04:16:46;30.20;;;14.80;;
18776;SDS011;9517;51.174;4.160;2023-07-22T04:19:13;33.47;;;14.73;;
18776;SDS011;9517;51.174;4.160;2023-07-22T04:21:43;32.13;;;14.70;;
18776;SDS011;9517;51.174;4.160;2023-07-22T04:24:10;28.90;;;14.60;;
18776;SDS011;9517;51.174;4.160;2023-07-22T04:26:37;28.07;;;14.23;;
18776;SDS011;9517;51.174;4.160;2023-07-22T04:29:06;33.60;;;14.73;;
18776;SDS011;9517;51.174;4.160;2023-07-22T04:31:33;30.67;;;15.00;;
18776;SDS011;9517;51.174;4.160;2023-07-22T04:34:00;29.73;;;14.83;;
18776;SDS011;9517;51.174;4.160;2023-07-22T04:36:27;33.10;;;15.07;;
18776;SDS011;9517;51.174;4.160;2023-07-22T04:38:54;31.00;;;15.10;;
18776;SDS011;9517;51.174;4.160;2023-07-22T04:41:21;29.90;;;15.17;;
18776;SDS011;9517;51.174;4.160;2023-07-22T04:43:49;28.17;;;14.80;;
18776;SDS011;9517;51.174;4.160;2023-07-22T04:46:19;35.47;;;14.23;;
18776;SDS011;9517;51.174;4.160;2023-07-22T04:48:46;31.93;;;13.37;;
18776;SDS011;9517;51.174;4.160;2023-07-22T04:51:13;31.10;;;14.40;;
18776;SDS011;9517;51.174;4.160;2023-07-22T04:53:40;31.73;;;14.67;;
18776;SDS011;9517;51.174;4.160;2023-07-22T04:56:07;33.50;;;14.17;;
18776;SDS011;9517;51.174;4.160;2023-07-22T04:58:35;31.93;;;14.57;;
18776;SDS011;9517;51.174;4.160;2023-07-22T05:01:02;29.03;;;14.40;;
18776;SDS011;9517;51.174;4.160;2023-07-22T05:03:30;30.77;;;14.50;;
18776;SDS011;9517;51.174;4.160;2023-07-22T05:05:57;30.40;;;13.97;;
18776;SDS011;9517;51.174;4.160;2023-07-22T05:08:25;33.00;;;14.23;;
18776;SDS011;9517;51.174;4.160;2023-07-22T05:10:52;25.77;;;13.73;;
18776;SDS011;9517;51.174;4.160;2023-07-22T05:13:19;28.40;;;13.47;;
18776;SDS011;9517;51.174;4.160;2023-07-22T05:15:46;28.83;;;14.33;;
18776;SDS011;9517;51.174;4.160;2023-07-22T05:18:13;33.27;;;14.13;;
18776;SDS011;9517;51.174;4.160;2023-07-22T05:20:42;33.67;;;14.40;;
18776;SDS011;9517;51.174;4.160;2023-07-22T05:23:11;30.30;;;14.37;;
18776;SDS011;9517;51.174;4.160;2023-07-22T05:25:38;31.10;;;14.20;;
18776;SDS011;9517;51.174;4.160;2023-07-22T05:28:06;26.13;;;13.73;;
18776;SDS011;9517;51.174;4.160;2023-07-22T05:30:33;30.57;;;14.07;;
18776;SDS011;9517;51.174;4.160;2023-07-22T05:33:00;26.57;;;13.30;;
18776;SDS011;9517;51.174;4.160;2023-07-22T05:35:27;28.23;;;13.50;;
18776;SDS011;9517;51.174;4.160;2023-07-22T05:37:55;29.17;;;13.63;;
18776;SDS011;9517;51.174;4.160;2023-07-22T05:40:22;32.53;;;12.80;;
18776;SDS011;9517;51.174;4.160;2023-07-22T05:42:49;26.37;;;12.77;;
18776;SDS011;9517;51.174;4.160;2023-07-22T05:45:16;28.63;;;12.50;;
18776;SDS011;9517;51.174;4.160;2023-07-22T05:47:44;28.97;;;13.93;;
18776;SDS011;9517;51.174;4.160;2023-07-22T05:50:11;29.90;;;13.43;;
18776;SDS011;9517;51.174;4.160;2023-07-22T05:52:38;31.83;;;13.57;;
18776;SDS011;9517;51.174;4.160;2023-07-22T05:55:07;29.07;;;12.97;;
18776;SDS011;9517;51.174;4.160;2023-07-22T05:57:34;28.10;;;13.80;;
18776;SDS011;9517;51.174;4.160;2023-07-22T06:00:01;29.30;;;12.80;;
18776;SDS011;9517;51.174;4.160;2023-07-22T06:02:29;28.50;;;13.07;;
18776;SDS011;9517;51.174;4.160;2023-07-22T06:04:56;25.53;;;12.07;;
18776;SDS011;9517;51.174;4.160;2023-07-22T06:07:23;24.57;;;13.00;;
18776;SDS011;9517;51.174;4.160;2023-07-22T06:09:50;24.27;;;12.63;;
18776;SDS011;9517;51.174;4.160;2023-07-22T06:12:21;32.43;;;13.20;;
18776;SDS011;9517;51.174;4.160;2023-07-22T06:14:48;27.23;;;11.33;;
18776;SDS011;9517;51.174;4.160;2023-07-22T06:17:16;27.27;;;13.00;;
18776;SDS011;9517;51.174;4.160;2023-07-22T06:19:43;28.00;;;12.30;;
18776;SDS011;9517;51.174;4.160;2023-07-22T06:22:10;37.30;;;13.10;;
18776;SDS011;9517;51.174;4.160;2023-07-22T06:24:38;23.30;;;11.60;;
18776;SDS011;9517;51.174;4.160;2023-07-22T06:27:05;27.57;;;12.67;;
18776;SDS011;9517;51.174;4.160;2023-07-22T06:29:34;25.90;;;12.20;;
18776;SDS011;9517;51.174;4.160;2023-07-22T06:32:01;23.70;;;11.13;;
18776;SDS011;9517;51.174;4.160;2023-07-22T06:34:28;24.83;;;11.60;;
18776;SDS011;9517;51.174;4.160;2023-07-22T06:36:55;28.77;;;11.53;;
18776;SDS011;9517;51.174;4.160;2023-07-22T06:39:22;27.40;;;11.43;;
18776;SDS011;9517;51.174;4.160;2023-07-22T06:41:49;24.70;;;10.77;;
18776;SDS011;9517;51.174;4.160;2023-07-22T06:44:16;23.50;;;10.63;;
18776;SDS011;9517;51.174;4.160;2023-07-22T06:46:45;26.77;;;12.00;;
18776;SDS011;9517;51.174;4.160;2023-07-22T06:49:12;26.10;;;11.57;;
18776;SDS011;9517;51.174;4.160;2023-07-22T06:51:39;27.03;;;11.20;;
18776;SDS011;9517;51.174;4.160;2023-07-22T06:54:06;23.97;;;9.77;;
18776;SDS011;9517;51.174;4.160;2023-07-22T06:56:33;23.47;;;10.40;;
18776;SDS011;9517;51.174;4.160;2023-07-22T06:59:00;24.97;;;10.03;;
18776;SDS011;9517;51.174;4.160;2023-07-22T07:01:28;27.37;;;11.10;;
18776;SDS011;9517;51.174;4.160;2023-07-22T07:03:56;28.20;;;11.03;;
18776;SDS011;9517;51.174;4.160;2023-07-22T07:06:23;28.07;;;11.13;;
18776;SDS011;9517;51.174;4.160;2023-07-22T07:08:50;25.67;;;10.70;;
18776;SDS011;9517;51.174;4.160;2023-07-22T07:11:17;24.43;;;9.83;;
18776;SDS011;9517;51.174;4.160;2023-07-22T07:13:45;25.10;;;10.67;;
18776;SDS011;9517;51.174;4.160;2023-07-22T07:16:21;23.63;;;10.27;;
18776;SDS011;9517;51.174;4.160;2023-07-22T07:18:49;22.67;;;9.20;;
18776;SDS011;9517;51.174;4.160;2023-07-22T07:21:18;24.47;;;10.00;;
18776;SDS011;9517;51.174;4.160;2023-07-22T07:23:46;21.27;;;9.03;;
18776;SDS011;9517;51.174;4.160;2023-07-22T07:26:13;17.47;;;8.43;;
18776;SDS011;9517;51.174;4.160;2023-07-22T07:28:40;22.80;;;8.60;;
18776;SDS011;9517;51.174;4.160;2023-07-22T07:31:07;21.23;;;8.50;;
18776;SDS011;9517;51.174;4.160;2023-07-22T07:33:35;21.33;;;9.53;;
18776;SDS011;9517;51.174;4.160;2023-07-22T07:36:02;22.90;;;7.87;;
18776;SDS011;9517;51.174;4.160;2023-07-22T07:38:31;17.67;;;6.73;;
18776;SDS011;9517;51.174;4.160;2023-07-22T07:40:59;17.50;;;7.63;;
18776;SDS011;9517;51.174;4.160;2023-07-22T07:43:28;20.73;;;7.97;;
18776;SDS011;9517;51.174;4.160;2023-07-22T07:48:42;20.70;;;6.80;;
18776;SDS011;9517;51.174;4.160;2023-07-22T07:51:11;17.43;;;6.83;;
18776;SDS011;9517;51.174;4.160;2023-07-22T07:53:40;15.27;;;5.93;;
18776;SDS011;9517;51.174;4.160;2023-07-22T07:56:08;18.37;;;6.30;;
18776;SDS011;9517;51.174;4.160;2023-07-22T07:58:36;16.53;;;6.30;;
18776;SDS011;9517;51.174;4.160;2023-07-22T08:01:03;16.00;;;5.30;;
18776;SDS011;9517;51.174;4.160;2023-07-22T08:03:32;16.40;;;6.07;;
18776;SDS011;9517;51.174;4.160;2023-07-22T08:06:00;16.23;;;6.33;;
18776;SDS011;9517;51.174;4.160;2023-07-22T08:08:27;14.03;;;6.20;;
18776;SDS011;9517;51.174;4.160;2023-07-22T08:10:59;19.70;;;5.90;;
18776;SDS011;9517;51.174;4.160;2023-07-22T08:13:27;18.07;;;5.90;;
18776;SDS011;9517;51.174;4.160;2023-07-22T08:15:56;21.83;;;6.17;;
18776;SDS011;9517;51.174;4.160;2023-07-22T08:18:23;12.07;;;5.20;;
18776;SDS011;9517;51.174;4.160;2023-07-22T08:20:51;14.30;;;5.27;;
18776;SDS011;9517;51.174;4.160;2023-07-22T08:23:19;17.70;;;5.67;;
18776;SDS011;9517;51.174;4.160;2023-07-22T08:25:46;15.57;;;5.30;;
18776;SDS011;9517;51.174;4.160;2023-07-22T08:28:15;16.97;;;5.87;;
18776;SDS011;9517;51.174;4.160;2023-07-22T08:30:43;15.10;;;5.13;;
18776;SDS011;9517;51.174;4.160;2023-07-22T08:33:11;17.93;;;5.40;;
18776;SDS011;9517;51.174;4.160;2023-07-22T08:35:38;17.27;;;5.70;;
18776;SDS011;9517;51.174;4.160;2023-07-22T08:38:06;18.30;;;5.73;;
18776;SDS011;9517;51.174;4.160;2023-07-22T08:40:33;14.27;;;5.30;;
18776;SDS011;9517;51.174;4.160;2023-07-22T08:43:01;13.27;;;5.30;;
18776;SDS011;9517;51.174;4.160;2023-07-22T08:45:32;17.40;;;5.03;;
18776;SDS011;9517;51.174;4.160;2023-07-22T08:48:02;14.93;;;4.77;;
18776;SDS011;9517;51.174;4.160;2023-07-22T08:50:34;16.43;;;5.43;;
18776;SDS011;9517;51.174;4.160;2023-07-22T08:53:05;13.60;;;4.47;;
18776;SDS011;9517;51.174;4.160;2023-07-22T08:55:33;15.37;;;4.97;;
18776;SDS011;9517;51.174;4.160;2023-07-22T08:58:01;16.70;;;5.13;;
18776;SDS011;9517;51.174;4.160;2023-07-22T09:00:31;12.53;;;4.73;;
18776;SDS011;9517;51.174;4.160;2023-07-22T09:02:58;16.10;;;4.60;;
18776;SDS011;9517;51.174;4.160;2023-07-22T09:05:27;14.20;;;4.77;;
18776;SDS011;9517;51.174;4.160;2023-07-22T09:07:54;12.80;;;4.33;;
18776;SDS011;9517;51.174;4.160;2023-07-22T09:10:23;16.67;;;5.13;;
18776;SDS011;9517;51.174;4.160;2023-07-22T09:12:53;12.10;;;4.30;;
18776;SDS011;9517;51.174;4.160;2023-07-22T09:15:20;11.27;;;3.87;;
18776;SDS011;9517;51.174;4.160;2023-07-22T09:17:50;12.93;;;4.23;;
18776;SDS011;9517;51.174;4.160;2023-07-22T09:20:17;15.83;;;4.37;;
18776;SDS011;9517;51.174;4.160;2023-07-22T09:22:47;14.73;;;4.37;;
18776;SDS011;9517;51.174;4.160;2023-07-22T09:25:17;12.87;;;4.23;;
18776;SDS011;9517;51.174;4.160;2023-07-22T09:27:45;16.20;;;4.47;;
18776;SDS011;9517;51.174;4.160;2023-07-22T09:30:22;11.87;;;4.40;;
18776;SDS011;9517;51.174;4.160;2023-07-22T09:32:55;10.93;;;3.60;;
18776;SDS011;9517;51.174;4.160;2023-07-22T09:35:24;11.43;;;3.57;;
18776;SDS011;9517;51.174;4.160;2023-07-22T09:37:52;13.47;;;4.33;;
18776;SDS011;9517;51.174;4.160;2023-07-22T09:40:20;14.27;;;3.33;;
18776;SDS011;9517;51.174;4.160;2023-07-22T09:42:49;11.20;;;3.23;;
18776;SDS011;9517;51.174;4.160;2023-07-22T09:45:18;13.00;;;3.53;;
18776;SDS011;9517;51.174;4.160;2023-07-22T09:47:46;11.57;;;3.00;;
18776;SDS011;9517;51.174;4.160;2023-07-22T09:50:16;12.33;;;3.20;;
18776;SDS011;9517;51.174;4.160;2023-07-22T09:52:45;8.77;;;3.13;;
18776;SDS011;9517;51.174;4.160;2023-07-22T09:55:14;11.40;;;3.37;;
18776;SDS011;9517;51.174;4.160;2023-07-22T09:57:44;8.13;;;2.67;;
18776;SDS011;9517;51.174;4.160;2023-07-22T10:00:12;10.77;;;2.70;;
18776;SDS011;9517;51.174;4.160;2023-07-22T10:02:41;8.90;;;2.83;;
18776;SDS011;9517;51.174;4.160;2023-07-22T10:05:13;11.20;;;3.30;;
18776;SDS011;9517;51.174;4.160;2023-07-22T10:07:47;8.77;;;2.63;;
18776;SDS011;9517;51.174;4.160;2023-07-22T10:10:16;8.33;;;3.03;;
18776;SDS011;9517;51.174;4.160;2023-07-22T10:12:45;6.90;;;2.40;;
18776;SDS011;9517;51.174;4.160;2023-07-22T10:15:14;9.27;;;2.93;;
18776;SDS011;9517;51.174;4.160;2023-07-22T10:17:43;10.73;;;2.83;;
18776;SDS011;9517;51.174;4.160;2023-07-22T10:20:11;9.73;;;2.77;;
18776;SDS011;9517;51.174;4.160;2023-07-22T10:22:41;6.27;;;1.97;;
18776;SDS011;9517;51.174;4.160;2023-07-22T10:25:12;11.03;;;2.30;;
18776;SDS011;9517;51.174;4.160;2023-07-22T10:27:40;8.07;;;2.50;;
18776;SDS011;9517;51.174;4.160;2023-07-22T10:30:08;9.53;;;2.40;;
18776;SDS011;9517;51.174;4.160;2023-07-22T10:32:39;8.73;;;2.23;;
18776;SDS011;9517;51.174;4.160;2023-07-22T10:35:08;7.97;;;2.37;;
18776;SDS011;9517;51.174;4.160;2023-07-22T10:37:36;9.87;;;2.73;;
18776;SDS011;9517;51.174;4.160;2023-07-22T10:40:22;5.50;;;2.00;;
18776;SDS011;9517;51.174;4.160;2023-07-22T10:42:53;8.10;;;2.30;;
18776;SDS011;9517;51.174;4.160;2023-07-22T10:45:24;8.10;;;2.37;;
18776;SDS011;9517;51.174;4.160;2023-07-22T10:48:00;8.10;;;2.33;;
18776;SDS011;9517;51.174;4.160;2023-07-22T10:50:39;9.90;;;2.27;;
18776;SDS011;9517;51.174;4.160;2023-07-22T10:53:12;7.10;;;2.37;;
18776;SDS011;9517;51.174;4.160;2023-07-22T11:01:37;7.20;;;1.80;;
18776;SDS011;9517;51.174;4.160;2023-07-22T11:04:07;5.53;;;1.60;;
18776;SDS011;9517;51.174;4.160;2023-07-22T11:06:54;5.60;;;1.43;;
18776;SDS011;9517;51.174;4.160;2023-07-22T11:09:34;5.17;;;1.60;;
18776;SDS011;9517;51.174;4.160;2023-07-22T11:12:05;10.87;;;1.57;;
18776;SDS011;9517;51.174;4.160;2023-07-22T11:14:34;6.17;;;1.70;;
18776;SDS011;9517;51.174;4.160;2023-07-22T11:17:04;4.27;;;1.33;;
18776;SDS011;9517;51.174;4.160;2023-07-22T11:19:33;7.00;;;1.80;;
18776;SDS011;9517;51.174;4.160;2023-07-22T11:22:00;4.73;;;1.60;;
18776;SDS011;9517;51.174;4.160;2023-07-22T11:24:28;7.27;;;1.73;;
18776;SDS011;9517;51.174;4.160;2023-07-22T11:26:55;4.43;;;1.40;;
18776;SDS011;9517;51.174;4.160;2023-07-22T11:29:23;6.63;;;1.80;;
18776;SDS011;9517;51.174;4.160;2023-07-22T11:31:56;5.60;;;1.43;;
18776;SDS011;9517;51.174;4.160;2023-07-22T11:34:23;8.40;;;1.97;;
18776;SDS011;9517;51.174;4.160;2023-07-22T11:36:52;4.23;;;1.50;;
18776;SDS011;9517;51.174;4.160;2023-07-22T11:39:20;6.37;;;1.60;;
18776;SDS011;9517;51.174;4.160;2023-07-22T11:41:49;5.20;;;1.83;;
18776;SDS011;9517;51.174;4.160;2023-07-22T11:44:17;4.63;;;1.60;;
18776;SDS011;9517;51.174;4.160;2023-07-22T11:46:54;5.47;;;1.73;;
18776;SDS011;9517;51.174;4.160;2023-07-22T11:49:22;6.00;;;1.95;;
18776;SDS011;9517;51.174;4.160;2023-07-22T11:51:50;6.50;;;1.63;;
18776;SDS011;9517;51.174;4.160;2023-07-22T11:54:17;7.32;;;2.13;;
18776;SDS011;9517;51.174;4.160;2023-07-22T11:56:46;9.40;;;1.77;;
18776;SDS011;9517;51.174;4.160;2023-07-22T11:59:13;6.18;;;1.70;;
18776;SDS011;9517;51.174;4.160;2023-07-22T12:01:42;6.32;;;1.75;;
18776;SDS011;9517;51.174;4.160;2023-07-22T12:04:12;5.53;;;1.55;;
18776;SDS011;9517;51.174;4.160;2023-07-22T12:06:40;7.63;;;1.83;;
18776;SDS011;9517;51.174;4.160;2023-07-22T12:09:08;8.13;;;1.80;;
18776;SDS011;9517;51.174;4.160;2023-07-22T12:11:36;4.05;;;1.48;;
18776;SDS011;9517;51.174;4.160;2023-07-22T12:14:04;5.90;;;1.70;;
18776;SDS011;9517;51.174;4.160;2023-07-22T12:16:34;6.30;;;1.40;;
18776;SDS011;9517;51.174;4.160;2023-07-22T12:19:02;7.00;;;1.48;;
18776;SDS011;9517;51.174;4.160;2023-07-22T12:21:35;5.53;;;1.70;;
18776;SDS011;9517;51.174;4.160;2023-07-22T12:24:02;7.67;;;2.00;;
18776;SDS011;9517;51.174;4.160;2023-07-22T12:26:30;6.50;;;1.80;;
18776;SDS011;9517;51.174;4.160;2023-07-22T12:28:57;8.90;;;2.10;;
18776;SDS011;9517;51.174;4.160;2023-07-22T12:31:25;6.53;;;1.73;;
18776;SDS011;9517;51.174;4.160;2023-07-22T12:33:52;5.77;;;2.00;;
18776;SDS011;9517;51.174;4.160;2023-07-22T12:36:20;5.60;;;2.00;;
18776;SDS011;9517;51.174;4.160;2023-07-22T12:38:48;5.47;;;2.10;;
18776;SDS011;9517;51.174;4.160;2023-07-22T12:41:16;9.30;;;2.00;;
18776;SDS011;9517;51.174;4.160;2023-07-22T12:43:43;8.67;;;2.00;;
18776;SDS011;9517;51.174;4.160;2023-07-22T12:46:14;7.33;;;2.07;;
18776;SDS011;9517;51.174;4.160;2023-07-22T12:48:41;7.90;;;2.30;;
18776;SDS011;9517;51.174;4.160;2023-07-22T12:51:08;9.13;;;2.23;;
18776;SDS011;9517;51.174;4.160;2023-07-22T12:53:35;12.43;;;2.57;;
18776;SDS011;9517;51.174;4.160;2023-07-22T12:56:04;13.67;;;2.93;;
18776;SDS011;9517;51.174;4.160;2023-07-22T12:58:32;9.70;;;2.73;;
18776;SDS011;9517;51.174;4.160;2023-07-22T13:00:59;7.73;;;2.30;;
18776;SDS011;9517;51.174;4.160;2023-07-22T13:03:27;7.83;;;2.30;;
18776;SDS011;9517;51.174;4.160;2023-07-22T13:05:54;8.03;;;2.00;;
18776;SDS011;9517;51.174;4.160;2023-07-22T13:08:21;7.87;;;1.83;;
18776;SDS011;9517;51.174;4.160;2023-07-22T13:10:48;8.60;;;1.77;;
18776;SDS011;9517;51.174;4.160;2023-07-22T13:13:17;7.77;;;1.87;;
18776;SDS011;9517;51.174;4.160;2023-07-22T13:15:44;12.73;;;2.40;;
18776;SDS011;9517;51.174;4.160;2023-07-22T13:18:12;12.60;;;2.27;;
18776;SDS011;9517;51.174;4.160;2023-07-22T13:20:41;7.40;;;2.07;;
18776;SDS011;9517;51.174;4.160;2023-07-22T13:23:09;10.07;;;2.20;;
18776;SDS011;9517;51.174;4.160;2023-07-22T13:25:36;7.10;;;1.93;;
18776;SDS011;9517;51.174;4.160;2023-07-22T13:28:03;7.97;;;2.00;;
18776;SDS011;9517;51.174;4.160;2023-07-22T13:30:32;9.23;;;2.43;;
18776;SDS011;9517;51.174;4.160;2023-07-22T13:32:59;7.83;;;2.30;;
18776;SDS011;9517;51.174;4.160;2023-07-22T13:35:27;8.30;;;2.20;;
18776;SDS011;9517;51.174;4.160;2023-07-22T13:37:55;9.27;;;1.90;;
18776;SDS011;9517;51.174;4.160;2023-07-22T13:40:22;9.30;;;2.13;;
18776;SDS011;9517;51.174;4.160;2023-07-22T13:42:50;6.60;;;1.63;;
18776;SDS011;9517;51.174;4.160;2023-07-22T13:45:17;8.17;;;2.00;;
18776;SDS011;9517;51.174;4.160;2023-07-22T13:47:46;10.20;;;2.50;;
18776;SDS011;9517;51.174;4.160;2023-07-22T13:50:13;9.03;;;1.70;;
18776;SDS011;9517;51.174;4.160;2023-07-22T13:52:41;8.80;;;2.07;;
18776;SDS011;9517;51.174;4.160;2023-07-22T13:55:09;8.57;;;2.27;;
18776;SDS011;9517;51.174;4.160;2023-07-22T13:57:36;9.43;;;2.20;;
18776;SDS011;9517;51.174;4.160;2023-07-22T14:00:03;8.17;;;2.23;;
18776;SDS011;9517;51.174;4.160;2023-07-22T14:02:33;5.10;;;1.67;;
18776;SDS011;9517;51.174;4.160;2023-07-22T14:05:03;8.83;;;2.00;;
18776;SDS011;9517;51.174;4.160;2023-07-22T14:07:31;9.17;;;2.30;;
18776;SDS011;9517;51.174;4.160;2023-07-22T14:09:58;10.03;;;2.00;;
18776;SDS011;9517;51.174;4.160;2023-07-22T14:12:25;8.53;;;1.80;;
18776;SDS011;9517;51.174;4.160;2023-07-22T14:14:53;6.20;;;1.60;;
18776;SDS011;9517;51.174;4.160;2023-07-22T14:17:20;7.43;;;2.00;;
18776;SDS011;9517;51.174;4.160;2023-07-22T14:19:47;7.80;;;1.63;;
18776;SDS011;9517;51.174;4.160;2023-07-22T14:22:16;8.67;;;1.83;;
18776;SDS011;9517;51.174;4.160;2023-07-22T14:24:46;7.70;;;1.67;;
18776;SDS011;9517;51.174;4.160;2023-07-22T14:27:13;7.33;;;1.90;;
18776;SDS011;9517;51.174;4.160;2023-07-22T14:29:40;8.80;;;1.60;;
18776;SDS011;9517;51.174;4.160;2023-07-22T14:32:08;9.33;;;1.77;;
18776;SDS011;9517;51.174;4.160;2023-07-22T14:34:35;7.90;;;2.00;;
18776;SDS011;9517;51.174;4.160;2023-07-22T14:37:03;8.23;;;1.80;;
18776;SDS011;9517;51.174;4.160;2023-07-22T14:39:32;7.37;;;1.97;;
18776;SDS011;9517;51.174;4.160;2023-07-22T14:42:00;9.13;;;2.00;;
18776;SDS011;9517;51.174;4.160;2023-07-22T14:44:27;8.17;;;2.23;;
18776;SDS011;9517;51.174;4.160;2023-07-22T14:46:55;8.27;;;1.97;;
18776;SDS011;9517;51.174;4.160;2023-07-22T14:49:22;7.10;;;1.87;;
18776;SDS011;9517;51.174;4.160;2023-07-22T14:51:49;8.43;;;2.00;;
18776;SDS011;9517;51.174;4.160;2023-07-22T14:54:16;9.00;;;1.70;;
18776;SDS011;9517;51.174;4.160;2023-07-22T14:56:45;5.90;;;1.63;;
18776;SDS011;9517;51.174;4.160;2023-07-22T14:59:14;9.03;;;1.90;;
18776;SDS011;9517;51.174;4.160;2023-07-22T15:01:42;8.03;;;2.10;;